METAR

METAR LDZA 170830Z VRB01KT CAVOK 25/15 Q1016 NOSIG =
METAR LDSP 170830Z 11005KT 070V150 CAVOK 29/16 Q1014 NOSIG=
METAR LDDU 170830Z 19007KT 140V270 CAVOK 28/20 Q1014 NOSIG =
METAR LDZD 170830Z 13003KT 100V170 CAVOK 28/16 Q1014 NOSIG =
METAR LDPL 170830Z 09005KT 040V180 CAVOK 29/15 Q1014 NOSIG=
METAR LDOS 170830Z VRB03KT CAVOK 28/18 Q1016=
METAR LDRI 170830Z 26004KT 210V320 CAVOK 28/15 Q1014 =
METAR LDLO 170800Z VRB03KT CAVOK 28/17 Q1014=

TAF

TAF LDZA 170525Z 1706/1806 VRB02KT CAVOK
                 TX29/1713Z TN16/1803Z=
TAF LDSP 170525Z 1706/1806 31005KT CAVOK
                 TX30/1712Z TN23/1804Z
           BECMG 1710/1712 23009KT
    PROB30 TEMPO 1713/1717 TS FEW045CB
           BECMG 1716/1718 34006KT=
TAF LDDU 170525Z 1706/1806 05006KT CAVOK
                 TX29/1711Z TN23/1803Z
           BECMG 1707/1709 16008KT
           BECMG 1711/1713 30008KT
    PROB40 TEMPO 1713/1717 -TSRA FEW035CB SCT040
           BECMG 1717/1719 02010KT=
TAF LDZD 170525Z 1706/1806 12005KT CAVOK
                 TX31/1713Z TN21/1804Z
           BECMG 1710/1712 30010KT
           BECMG 1718/1720 06005KT=
TAF LDPL 170525Z 1706/1806 08007KT CAVOK
                 TX31/1713Z TN21/1803Z
           BECMG 1711/1713 27010KT
           BECMG 1717/1719 VRB02KT=
TAF LDOS 170525Z 1706/1806 VRB02KT CAVOK
                 TX28/1713Z TN16/1803Z
           TEMPO 1708/1714 11008KT=
TAF LDRI 170525Z 1706/1806 06007KT 9999 SCT040
                 TX30/1712Z TN23/1802Z
           BECMG 1711/1712 32008KT
           BECMG 1717/1719 VRB02KT=
TAF LDLO 170604Z 1706/1806 03006KT CAVOK
                 TX31/1712Z TN23/1802Z
           BECMG 1710/1712 29010KT
           BECMG 1717/1719 VRB02KT=

SIGMET

AIRMET

Remark

Ukoliko se brzina i smjer vjetra ne mogu odrediti zbog privremenog kvara sustava/indikatora,
informacija o vjetru u METAR izvješću bit će prikazana kao "/////KT".

 

Disclaimer

 

In case of temporary system/sensor failure, wind speed and direction data will be represented as "/////KT" in METAR report.

 

         

      Politika MET podataka